sensor_id;sensor_type;location;lat;lon;timestamp;P1;durP1;ratioP1;P2;durP2;ratioP2
75191;SDS011;63771;52.580;9.734;2023-12-07T00:02:23;24.97;;;15.03;;
75191;SDS011;63771;52.580;9.734;2023-12-07T00:04:49;22.57;;;14.00;;
75191;SDS011;63771;52.580;9.734;2023-12-07T00:07:14;29.57;;;16.67;;
75191;SDS011;63771;52.580;9.734;2023-12-07T00:09:39;24.40;;;15.03;;
75191;SDS011;63771;52.580;9.734;2023-12-07T00:12:05;27.60;;;14.60;;
75191;SDS011;63771;52.580;9.734;2023-12-07T00:14:31;23.90;;;14.32;;
75191;SDS011;63771;52.580;9.734;2023-12-07T00:16:56;25.17;;;14.17;;
75191;SDS011;63771;52.580;9.734;2023-12-07T00:19:22;27.88;;;13.85;;
75191;SDS011;63771;52.580;9.734;2023-12-07T00:21:47;21.75;;;13.85;;
75191;SDS011;63771;52.580;9.734;2023-12-07T00:24:12;24.30;;;14.10;;
75191;SDS011;63771;52.580;9.734;2023-12-07T00:26:38;23.17;;;14.00;;
75191;SDS011;63771;52.580;9.734;2023-12-07T00:29:03;21.93;;;13.93;;
75191;SDS011;63771;52.580;9.734;2023-12-07T00:31:28;24.02;;;14.60;;
75191;SDS011;63771;52.580;9.734;2023-12-07T00:33:54;19.63;;;12.83;;
75191;SDS011;63771;52.580;9.734;2023-12-07T00:36:19;23.33;;;15.20;;
75191;SDS011;63771;52.580;9.734;2023-12-07T00:38:45;20.27;;;13.32;;
75191;SDS011;63771;52.580;9.734;2023-12-07T00:41:10;21.20;;;13.55;;
75191;SDS011;63771;52.580;9.734;2023-12-07T00:43:36;22.25;;;14.57;;
75191;SDS011;63771;52.580;9.734;2023-12-07T00:46:01;21.93;;;14.80;;
75191;SDS011;63771;52.580;9.734;2023-12-07T00:48:27;23.58;;;15.10;;
75191;SDS011;63771;52.580;9.734;2023-12-07T00:50:52;19.17;;;13.00;;
75191;SDS011;63771;52.580;9.734;2023-12-07T00:53:18;25.13;;;14.77;;
75191;SDS011;63771;52.580;9.734;2023-12-07T00:55:43;20.80;;;13.55;;
75191;SDS011;63771;52.580;9.734;2023-12-07T00:58:08;22.90;;;14.35;;
75191;SDS011;63771;52.580;9.734;2023-12-07T01:00:34;21.50;;;14.30;;
75191;SDS011;63771;52.580;9.734;2023-12-07T01:02:59;20.03;;;14.00;;
75191;SDS011;63771;52.580;9.734;2023-12-07T01:05:25;22.75;;;14.70;;
75191;SDS011;63771;52.580;9.734;2023-12-07T01:07:50;20.83;;;12.82;;
75191;SDS011;63771;52.580;9.734;2023-12-07T01:10:16;19.50;;;12.65;;
75191;SDS011;63771;52.580;9.734;2023-12-07T01:12:41;20.40;;;12.87;;
75191;SDS011;63771;52.580;9.734;2023-12-07T01:15:07;20.50;;;13.03;;
75191;SDS011;63771;52.580;9.734;2023-12-07T01:17:32;20.25;;;12.95;;
75191;SDS011;63771;52.580;9.734;2023-12-07T01:19:57;17.73;;;12.20;;
75191;SDS011;63771;52.580;9.734;2023-12-07T01:22:23;18.90;;;10.97;;
75191;SDS011;63771;52.580;9.734;2023-12-07T01:24:48;17.30;;;11.83;;
75191;SDS011;63771;52.580;9.734;2023-12-07T01:27:13;16.50;;;12.07;;
75191;SDS011;63771;52.580;9.734;2023-12-07T01:29:39;16.77;;;11.70;;
75191;SDS011;63771;52.580;9.734;2023-12-07T01:32:04;14.60;;;10.40;;
75191;SDS011;63771;52.580;9.734;2023-12-07T01:34:30;16.67;;;11.65;;
75191;SDS011;63771;52.580;9.734;2023-12-07T01:36:57;16.88;;;12.50;;
75191;SDS011;63771;52.580;9.734;2023-12-07T01:39:22;17.48;;;11.27;;
75191;SDS011;63771;52.580;9.734;2023-12-07T01:41:48;17.70;;;11.13;;
75191;SDS011;63771;52.580;9.734;2023-12-07T01:44:13;14.32;;;10.43;;
75191;SDS011;63771;52.580;9.734;2023-12-07T01:46:38;20.50;;;11.57;;
75191;SDS011;63771;52.580;9.734;2023-12-07T01:49:04;18.08;;;12.30;;
75191;SDS011;63771;52.580;9.734;2023-12-07T01:51:29;18.33;;;11.93;;
75191;SDS011;63771;52.580;9.734;2023-12-07T01:53:56;15.05;;;11.73;;
75191;SDS011;63771;52.580;9.734;2023-12-07T01:56:21;17.23;;;11.43;;
75191;SDS011;63771;52.580;9.734;2023-12-07T01:58:49;18.02;;;11.60;;
75191;SDS011;63771;52.580;9.734;2023-12-07T02:01:15;17.58;;;11.57;;
75191;SDS011;63771;52.580;9.734;2023-12-07T02:03:40;15.73;;;11.05;;
75191;SDS011;63771;52.580;9.734;2023-12-07T02:06:06;16.42;;;12.27;;
75191;SDS011;63771;52.580;9.734;2023-12-07T02:08:33;15.85;;;10.95;;
75191;SDS011;63771;52.580;9.734;2023-12-07T02:10:59;19.65;;;11.43;;
75191;SDS011;63771;52.580;9.734;2023-12-07T02:13:26;17.35;;;11.85;;
75191;SDS011;63771;52.580;9.734;2023-12-07T02:15:52;16.17;;;11.70;;
75191;SDS011;63771;52.580;9.734;2023-12-07T02:18:24;16.98;;;11.95;;
75191;SDS011;63771;52.580;9.734;2023-12-07T02:21:01;16.80;;;11.43;;
75191;SDS011;63771;52.580;9.734;2023-12-07T02:23:47;14.82;;;10.55;;
75191;SDS011;63771;52.580;9.734;2023-12-07T02:26:28;16.90;;;10.48;;
75191;SDS011;63771;52.580;9.734;2023-12-07T02:29:10;17.10;;;10.60;;
75191;SDS011;63771;52.580;9.734;2023-12-07T02:31:35;15.63;;;10.27;;
75191;SDS011;63771;52.580;9.734;2023-12-07T02:34:01;15.27;;;11.00;;
75191;SDS011;63771;52.580;9.734;2023-12-07T02:36:26;15.97;;;11.03;;
75191;SDS011;63771;52.580;9.734;2023-12-07T02:38:56;19.10;;;11.02;;
75191;SDS011;63771;52.580;9.734;2023-12-07T02:41:23;16.38;;;10.55;;
75191;SDS011;63771;52.580;9.734;2023-12-07T02:43:49;13.85;;;10.52;;
75191;SDS011;63771;52.580;9.734;2023-12-07T02:46:15;18.02;;;11.45;;
75191;SDS011;63771;52.580;9.734;2023-12-07T02:48:40;16.02;;;10.50;;
75191;SDS011;63771;52.580;9.734;2023-12-07T02:51:05;15.07;;;9.57;;
75191;SDS011;63771;52.580;9.734;2023-12-07T02:53:31;16.42;;;11.13;;
75191;SDS011;63771;52.580;9.734;2023-12-07T02:55:56;13.77;;;10.73;;
75191;SDS011;63771;52.580;9.734;2023-12-07T02:58:22;16.33;;;10.57;;
75191;SDS011;63771;52.580;9.734;2023-12-07T03:00:47;14.23;;;10.67;;
75191;SDS011;63771;52.580;9.734;2023-12-07T03:03:12;15.10;;;10.77;;
75191;SDS011;63771;52.580;9.734;2023-12-07T03:05:38;17.63;;;11.83;;
75191;SDS011;63771;52.580;9.734;2023-12-07T03:08:03;17.23;;;11.40;;
75191;SDS011;63771;52.580;9.734;2023-12-07T03:10:28;12.85;;;10.55;;
75191;SDS011;63771;52.580;9.734;2023-12-07T03:12:54;14.23;;;11.27;;
75191;SDS011;63771;52.580;9.734;2023-12-07T03:15:19;19.17;;;11.73;;
75191;SDS011;63771;52.580;9.734;2023-12-07T03:17:44;14.73;;;11.30;;
75191;SDS011;63771;52.580;9.734;2023-12-07T03:20:10;16.40;;;11.20;;
75191;SDS011;63771;52.580;9.734;2023-12-07T03:22:35;13.38;;;9.65;;
75191;SDS011;63771;52.580;9.734;2023-12-07T03:25:01;14.98;;;9.07;;
75191;SDS011;63771;52.580;9.734;2023-12-07T03:27:26;15.80;;;12.20;;
75191;SDS011;63771;52.580;9.734;2023-12-07T03:29:53;17.17;;;10.93;;
75191;SDS011;63771;52.580;9.734;2023-12-07T03:32:18;16.63;;;11.40;;
75191;SDS011;63771;52.580;9.734;2023-12-07T03:34:44;16.30;;;10.37;;
75191;SDS011;63771;52.580;9.734;2023-12-07T03:37:09;15.83;;;10.53;;
75191;SDS011;63771;52.580;9.734;2023-12-07T03:39:34;14.73;;;10.83;;
75191;SDS011;63771;52.580;9.734;2023-12-07T03:41:59;18.10;;;11.10;;
75191;SDS011;63771;52.580;9.734;2023-12-07T03:44:25;16.27;;;10.60;;
75191;SDS011;63771;52.580;9.734;2023-12-07T03:46:51;16.58;;;11.15;;
75191;SDS011;63771;52.580;9.734;2023-12-07T03:49:17;17.20;;;12.15;;
75191;SDS011;63771;52.580;9.734;2023-12-07T03:51:42;17.25;;;12.15;;
75191;SDS011;63771;52.580;9.734;2023-12-07T03:54:07;19.03;;;12.23;;
75191;SDS011;63771;52.580;9.734;2023-12-07T03:56:33;17.57;;;10.37;;
75191;SDS011;63771;52.580;9.734;2023-12-07T03:58:58;17.88;;;11.68;;
75191;SDS011;63771;52.580;9.734;2023-12-07T04:01:24;15.60;;;11.30;;
75191;SDS011;63771;52.580;9.734;2023-12-07T04:03:51;16.92;;;11.30;;
75191;SDS011;63771;52.580;9.734;2023-12-07T04:06:16;16.65;;;11.23;;
75191;SDS011;63771;52.580;9.734;2023-12-07T04:08:42;16.38;;;10.23;;
75191;SDS011;63771;52.580;9.734;2023-12-07T04:11:07;17.70;;;11.57;;
75191;SDS011;63771;52.580;9.734;2023-12-07T04:13:33;16.20;;;10.80;;
75191;SDS011;63771;52.580;9.734;2023-12-07T04:15:58;15.20;;;11.07;;
75191;SDS011;63771;52.580;9.734;2023-12-07T04:18:23;18.10;;;11.73;;
75191;SDS011;63771;52.580;9.734;2023-12-07T04:20:49;16.60;;;11.90;;
75191;SDS011;63771;52.580;9.734;2023-12-07T04:23:14;15.80;;;10.13;;
75191;SDS011;63771;52.580;9.734;2023-12-07T04:25:40;18.97;;;12.20;;
75191;SDS011;63771;52.580;9.734;2023-12-07T04:28:05;16.98;;;11.73;;
75191;SDS011;63771;52.580;9.734;2023-12-07T04:30:30;19.20;;;12.07;;
75191;SDS011;63771;52.580;9.734;2023-12-07T04:32:56;17.07;;;11.40;;
75191;SDS011;63771;52.580;9.734;2023-12-07T04:35:21;16.47;;;10.63;;
75191;SDS011;63771;52.580;9.734;2023-12-07T04:37:46;14.80;;;10.98;;
75191;SDS011;63771;52.580;9.734;2023-12-07T04:40:12;15.57;;;11.63;;
75191;SDS011;63771;52.580;9.734;2023-12-07T04:42:37;18.25;;;11.40;;
75191;SDS011;63771;52.580;9.734;2023-12-07T04:45:02;17.50;;;10.70;;
75191;SDS011;63771;52.580;9.734;2023-12-07T04:47:28;16.00;;;10.35;;
75191;SDS011;63771;52.580;9.734;2023-12-07T04:49:53;15.35;;;10.60;;
75191;SDS011;63771;52.580;9.734;2023-12-07T04:52:19;18.53;;;10.87;;
75191;SDS011;63771;52.580;9.734;2023-12-07T04:54:44;16.20;;;11.17;;
75191;SDS011;63771;52.580;9.734;2023-12-07T04:57:09;19.98;;;11.90;;
75191;SDS011;63771;52.580;9.734;2023-12-07T04:59:35;15.57;;;10.33;;
75191;SDS011;63771;52.580;9.734;2023-12-07T05:02:00;15.83;;;11.23;;
75191;SDS011;63771;52.580;9.734;2023-12-07T05:04:25;17.23;;;10.80;;
75191;SDS011;63771;52.580;9.734;2023-12-07T05:06:51;15.83;;;10.87;;
75191;SDS011;63771;52.580;9.734;2023-12-07T05:09:16;13.93;;;9.73;;
75191;SDS011;63771;52.580;9.734;2023-12-07T05:11:41;14.00;;;9.53;;
75191;SDS011;63771;52.580;9.734;2023-12-07T05:14:07;17.50;;;13.32;;
75191;SDS011;63771;52.580;9.734;2023-12-07T05:16:32;14.90;;;10.57;;
75191;SDS011;63771;52.580;9.734;2023-12-07T05:18:58;16.85;;;11.32;;
75191;SDS011;63771;52.580;9.734;2023-12-07T05:21:23;15.30;;;10.33;;
75191;SDS011;63771;52.580;9.734;2023-12-07T05:23:48;13.93;;;10.50;;
75191;SDS011;63771;52.580;9.734;2023-12-07T05:26:13;14.00;;;10.97;;
75191;SDS011;63771;52.580;9.734;2023-12-07T05:28:39;15.98;;;11.45;;
75191;SDS011;63771;52.580;9.734;2023-12-07T05:31:05;18.42;;;12.27;;
75191;SDS011;63771;52.580;9.734;2023-12-07T05:33:30;18.38;;;11.65;;
75191;SDS011;63771;52.580;9.734;2023-12-07T05:35:55;21.75;;;15.27;;
75191;SDS011;63771;52.580;9.734;2023-12-07T05:38:21;22.97;;;12.83;;
75191;SDS011;63771;52.580;9.734;2023-12-07T05:40:46;23.10;;;15.40;;
75191;SDS011;63771;52.580;9.734;2023-12-07T05:43:11;25.57;;;16.03;;
75191;SDS011;63771;52.580;9.734;2023-12-07T05:45:37;25.73;;;15.77;;
75191;SDS011;63771;52.580;9.734;2023-12-07T05:48:02;23.60;;;15.20;;
75191;SDS011;63771;52.580;9.734;2023-12-07T05:50:27;22.03;;;15.13;;
75191;SDS011;63771;52.580;9.734;2023-12-07T05:52:53;23.48;;;16.48;;
75191;SDS011;63771;52.580;9.734;2023-12-07T05:55:19;24.37;;;15.60;;
75191;SDS011;63771;52.580;9.734;2023-12-07T05:57:47;26.07;;;17.53;;
75191;SDS011;63771;52.580;9.734;2023-12-07T06:00:12;29.48;;;18.38;;
75191;SDS011;63771;52.580;9.734;2023-12-07T06:02:38;25.75;;;16.58;;
75191;SDS011;63771;52.580;9.734;2023-12-07T06:05:03;24.07;;;16.83;;
75191;SDS011;63771;52.580;9.734;2023-12-07T06:07:30;21.33;;;13.88;;
75191;SDS011;63771;52.580;9.734;2023-12-07T06:09:55;24.42;;;16.55;;
75191;SDS011;63771;52.580;9.734;2023-12-07T06:12:21;23.05;;;15.05;;
75191;SDS011;63771;52.580;9.734;2023-12-07T06:14:47;21.73;;;14.43;;
75191;SDS011;63771;52.580;9.734;2023-12-07T06:17:12;19.40;;;13.10;;
75191;SDS011;63771;52.580;9.734;2023-12-07T06:19:38;20.33;;;12.87;;
75191;SDS011;63771;52.580;9.734;2023-12-07T06:22:03;21.90;;;13.40;;
75191;SDS011;63771;52.580;9.734;2023-12-07T06:24:28;21.53;;;14.40;;
75191;SDS011;63771;52.580;9.734;2023-12-07T06:26:54;23.60;;;15.20;;
75191;SDS011;63771;52.580;9.734;2023-12-07T06:29:20;24.25;;;16.38;;
75191;SDS011;63771;52.580;9.734;2023-12-07T06:31:45;22.05;;;14.00;;
75191;SDS011;63771;52.580;9.734;2023-12-07T06:34:10;21.23;;;15.07;;
75191;SDS011;63771;52.580;9.734;2023-12-07T06:36:36;22.63;;;14.17;;
75191;SDS011;63771;52.580;9.734;2023-12-07T06:39:02;16.27;;;11.48;;
75191;SDS011;63771;52.580;9.734;2023-12-07T06:41:28;18.92;;;12.23;;
75191;SDS011;63771;52.580;9.734;2023-12-07T06:43:53;18.75;;;11.45;;
75191;SDS011;63771;52.580;9.734;2023-12-07T06:46:19;15.00;;;9.77;;
75191;SDS011;63771;52.580;9.734;2023-12-07T06:48:44;17.92;;;11.10;;
75191;SDS011;63771;52.580;9.734;2023-12-07T06:51:10;17.25;;;10.95;;
75191;SDS011;63771;52.580;9.734;2023-12-07T06:53:35;18.57;;;11.90;;
75191;SDS011;63771;52.580;9.734;2023-12-07T06:56:00;15.97;;;10.53;;
75191;SDS011;63771;52.580;9.734;2023-12-07T06:58:26;17.07;;;11.67;;
75191;SDS011;63771;52.580;9.734;2023-12-07T07:00:51;16.80;;;10.57;;
75191;SDS011;63771;52.580;9.734;2023-12-07T07:03:16;17.05;;;10.20;;
75191;SDS011;63771;52.580;9.734;2023-12-07T07:05:42;17.38;;;11.55;;
75191;SDS011;63771;52.580;9.734;2023-12-07T07:08:08;18.05;;;12.18;;
75191;SDS011;63771;52.580;9.734;2023-12-07T07:10:33;20.20;;;13.05;;
75191;SDS011;63771;52.580;9.734;2023-12-07T07:13:00;23.15;;;13.45;;
75191;SDS011;63771;52.580;9.734;2023-12-07T07:17:53;18.43;;;12.47;;
75191;SDS011;63771;52.580;9.734;2023-12-07T07:20:18;18.93;;;12.20;;
75191;SDS011;63771;52.580;9.734;2023-12-07T07:22:43;16.20;;;10.60;;
75191;SDS011;63771;52.580;9.734;2023-12-07T07:25:10;17.17;;;9.82;;
75191;SDS011;63771;52.580;9.734;2023-12-07T07:27:35;19.77;;;12.00;;
75191;SDS011;63771;52.580;9.734;2023-12-07T07:30:00;15.60;;;11.00;;
75191;SDS011;63771;52.580;9.734;2023-12-07T07:32:29;15.30;;;9.90;;
75191;SDS011;63771;52.580;9.734;2023-12-07T07:34:54;19.15;;;11.80;;
75191;SDS011;63771;52.580;9.734;2023-12-07T07:37:19;15.47;;;9.57;;
75191;SDS011;63771;52.580;9.734;2023-12-07T07:39:45;17.43;;;12.07;;
75191;SDS011;63771;52.580;9.734;2023-12-07T07:42:11;21.10;;;13.02;;
75191;SDS011;63771;52.580;9.734;2023-12-07T07:44:37;22.73;;;14.80;;
75191;SDS011;63771;52.580;9.734;2023-12-07T07:47:02;20.20;;;11.47;;
75191;SDS011;63771;52.580;9.734;2023-12-07T07:49:27;16.47;;;10.73;;
75191;SDS011;63771;52.580;9.734;2023-12-07T07:51:52;20.53;;;11.07;;
75191;SDS011;63771;52.580;9.734;2023-12-07T07:54:18;16.30;;;11.50;;
75191;SDS011;63771;52.580;9.734;2023-12-07T07:56:43;18.70;;;12.30;;
75191;SDS011;63771;52.580;9.734;2023-12-07T07:59:09;21.63;;;12.97;;
75191;SDS011;63771;52.580;9.734;2023-12-07T08:01:34;18.65;;;11.43;;
75191;SDS011;63771;52.580;9.734;2023-12-07T08:03:59;18.30;;;11.53;;
75191;SDS011;63771;52.580;9.734;2023-12-07T08:06:24;20.47;;;12.43;;
75191;SDS011;63771;52.580;9.734;2023-12-07T08:08:50;24.27;;;11.50;;
75191;SDS011;63771;52.580;9.734;2023-12-07T08:11:16;18.20;;;10.52;;
75191;SDS011;63771;52.580;9.734;2023-12-07T08:13:41;15.27;;;9.87;;
75191;SDS011;63771;52.580;9.734;2023-12-07T08:16:09;15.53;;;10.13;;
75191;SDS011;63771;52.580;9.734;2023-12-07T08:18:35;18.95;;;12.85;;
75191;SDS011;63771;52.580;9.734;2023-12-07T08:21:01;16.20;;;10.32;;
75191;SDS011;63771;52.580;9.734;2023-12-07T08:23:26;15.50;;;9.93;;
75191;SDS011;63771;52.580;9.734;2023-12-07T08:25:51;17.93;;;11.43;;
75191;SDS011;63771;52.580;9.734;2023-12-07T08:28:16;17.93;;;11.77;;
75191;SDS011;63771;52.580;9.734;2023-12-07T08:30:42;16.00;;;12.02;;
75191;SDS011;63771;52.580;9.734;2023-12-07T08:33:08;17.92;;;12.55;;
75191;SDS011;63771;52.580;9.734;2023-12-07T08:35:33;17.70;;;13.07;;
75191;SDS011;63771;52.580;9.734;2023-12-07T08:37:59;17.52;;;11.32;;
75191;SDS011;63771;52.580;9.734;2023-12-07T08:40:24;17.23;;;11.00;;
75191;SDS011;63771;52.580;9.734;2023-12-07T08:42:49;14.20;;;11.03;;
75191;SDS011;63771;52.580;9.734;2023-12-07T08:45:15;23.10;;;13.47;;
75191;SDS011;63771;52.580;9.734;2023-12-07T08:47:41;16.10;;;10.32;;
75191;SDS011;63771;52.580;9.734;2023-12-07T08:50:06;16.23;;;10.65;;
75191;SDS011;63771;52.580;9.734;2023-12-07T08:52:35;15.10;;;10.98;;
75191;SDS011;63771;52.580;9.734;2023-12-07T08:55:00;15.80;;;10.48;;
75191;SDS011;63771;52.580;9.734;2023-12-07T08:57:25;15.00;;;10.37;;
75191;SDS011;63771;52.580;9.734;2023-12-07T08:59:51;15.77;;;10.30;;
75191;SDS011;63771;52.580;9.734;2023-12-07T09:02:16;14.73;;;10.77;;
75191;SDS011;63771;52.580;9.734;2023-12-07T09:04:42;14.90;;;10.60;;
75191;SDS011;63771;52.580;9.734;2023-12-07T09:07:07;17.75;;;11.18;;
75191;SDS011;63771;52.580;9.734;2023-12-07T09:09:34;15.60;;;10.98;;
75191;SDS011;63771;52.580;9.734;2023-12-07T09:11:59;19.92;;;12.48;;
75191;SDS011;63771;52.580;9.734;2023-12-07T09:14:25;17.27;;;12.30;;
75191;SDS011;63771;52.580;9.734;2023-12-07T09:16:51;21.20;;;12.98;;
75191;SDS011;63771;52.580;9.734;2023-12-07T09:19:16;19.03;;;13.23;;
75191;SDS011;63771;52.580;9.734;2023-12-07T09:21:42;20.17;;;13.87;;
75191;SDS011;63771;52.580;9.734;2023-12-07T09:24:07;18.17;;;13.10;;
75191;SDS011;63771;52.580;9.734;2023-12-07T09:26:33;21.08;;;14.02;;
75191;SDS011;63771;52.580;9.734;2023-12-07T09:28:59;20.05;;;13.60;;
75191;SDS011;63771;52.580;9.734;2023-12-07T09:31:24;18.75;;;13.75;;
75191;SDS011;63771;52.580;9.734;2023-12-07T09:33:49;24.50;;;16.40;;
75191;SDS011;63771;52.580;9.734;2023-12-07T09:36:16;20.60;;;13.93;;
75191;SDS011;63771;52.580;9.734;2023-12-07T09:38:43;25.63;;;13.85;;
75191;SDS011;63771;52.580;9.734;2023-12-07T09:41:08;20.33;;;14.38;;
75191;SDS011;63771;52.580;9.734;2023-12-07T09:43:34;17.67;;;12.55;;
75191;SDS011;63771;52.580;9.734;2023-12-07T09:45:59;18.25;;;13.32;;
75191;SDS011;63771;52.580;9.734;2023-12-07T09:48:25;20.15;;;13.55;;
75191;SDS011;63771;52.580;9.734;2023-12-07T09:50:50;21.75;;;14.45;;
75191;SDS011;63771;52.580;9.734;2023-12-07T09:53:17;18.48;;;10.82;;
75191;SDS011;63771;52.580;9.734;2023-12-07T09:55:42;15.07;;;10.03;;
75191;SDS011;63771;52.580;9.734;2023-12-07T09:58:08;17.25;;;10.45;;
75191;SDS011;63771;52.580;9.734;2023-12-07T10:00:33;17.07;;;10.53;;
75191;SDS011;63771;52.580;9.734;2023-12-07T10:02:58;14.30;;;9.65;;
75191;SDS011;63771;52.580;9.734;2023-12-07T10:05:24;14.27;;;10.37;;
75191;SDS011;63771;52.580;9.734;2023-12-07T10:07:49;16.97;;;10.27;;
75191;SDS011;63771;52.580;9.734;2023-12-07T10:10:15;14.82;;;10.35;;
75191;SDS011;63771;52.580;9.734;2023-12-07T10:12:46;18.52;;;10.20;;
75191;SDS011;63771;52.580;9.734;2023-12-07T10:15:13;15.68;;;10.90;;
75191;SDS011;63771;52.580;9.734;2023-12-07T10:20:15;17.45;;;11.82;;
75191;SDS011;63771;52.580;9.734;2023-12-07T10:22:41;20.83;;;13.20;;
75191;SDS011;63771;52.580;9.734;2023-12-07T10:25:07;17.92;;;14.32;;
75191;SDS011;63771;52.580;9.734;2023-12-07T10:27:32;21.63;;;14.48;;
75191;SDS011;63771;52.580;9.734;2023-12-07T10:29:58;20.05;;;14.32;;
75191;SDS011;63771;52.580;9.734;2023-12-07T10:32:25;16.98;;;12.10;;
75191;SDS011;63771;52.580;9.734;2023-12-07T10:34:50;19.73;;;12.20;;
75191;SDS011;63771;52.580;9.734;2023-12-07T10:37:17;18.35;;;13.30;;
75191;SDS011;63771;52.580;9.734;2023-12-07T10:39:42;21.00;;;13.43;;
75191;SDS011;63771;52.580;9.734;2023-12-07T10:42:09;18.67;;;13.17;;
75191;SDS011;63771;52.580;9.734;2023-12-07T10:44:37;22.13;;;13.45;;
75191;SDS011;63771;52.580;9.734;2023-12-07T10:47:07;25.77;;;15.77;;
75191;SDS011;63771;52.580;9.734;2023-12-07T10:49:35;28.48;;;15.18;;
75191;SDS011;63771;52.580;9.734;2023-12-07T10:52:03;22.67;;;14.90;;
75191;SDS011;63771;52.580;9.734;2023-12-07T10:54:41;20.90;;;13.43;;
75191;SDS011;63771;52.580;9.734;2023-12-07T10:57:15;23.42;;;14.27;;
75191;SDS011;63771;52.580;9.734;2023-12-07T10:59:42;22.58;;;13.25;;
75191;SDS011;63771;52.580;9.734;2023-12-07T11:02:09;28.60;;;14.88;;
75191;SDS011;63771;52.580;9.734;2023-12-07T11:04:37;25.90;;;16.25;;
75191;SDS011;63771;52.580;9.734;2023-12-07T11:07:07;24.85;;;14.88;;
75191;SDS011;63771;52.580;9.734;2023-12-07T11:09:38;24.92;;;15.45;;
75191;SDS011;63771;52.580;9.734;2023-12-07T11:12:11;16.65;;;12.35;;
75191;SDS011;63771;52.580;9.734;2023-12-07T11:14:42;17.65;;;11.98;;
75191;SDS011;63771;52.580;9.734;2023-12-07T11:17:08;21.35;;;15.15;;
75191;SDS011;63771;52.580;9.734;2023-12-07T11:22:06;24.13;;;14.85;;
75191;SDS011;63771;52.580;9.734;2023-12-07T11:24:32;26.08;;;17.30;;
75191;SDS011;63771;52.580;9.734;2023-12-07T11:26:58;26.48;;;16.70;;
75191;SDS011;63771;52.580;9.734;2023-12-07T11:29:23;23.70;;;15.65;;
75191;SDS011;63771;52.580;9.734;2023-12-07T11:31:49;24.35;;;15.65;;
75191;SDS011;63771;52.580;9.734;2023-12-07T11:37:01;20.27;;;13.57;;
75191;SDS011;63771;52.580;9.734;2023-12-07T11:39:26;18.50;;;13.57;;
75191;SDS011;63771;52.580;9.734;2023-12-07T11:41:54;18.90;;;12.48;;
75191;SDS011;63771;52.580;9.734;2023-12-07T11:44:24;19.73;;;11.65;;
75191;SDS011;63771;52.580;9.734;2023-12-07T11:46:57;16.33;;;11.65;;
75191;SDS011;63771;52.580;9.734;2023-12-07T11:49:23;18.73;;;12.33;;
75191;SDS011;63771;52.580;9.734;2023-12-07T11:51:48;17.13;;;11.43;;
75191;SDS011;63771;52.580;9.734;2023-12-07T11:54:14;15.93;;;12.10;;
75191;SDS011;63771;52.580;9.734;2023-12-07T11:56:42;16.50;;;10.82;;
75191;SDS011;63771;52.580;9.734;2023-12-07T11:59:07;17.73;;;13.18;;
75191;SDS011;63771;52.580;9.734;2023-12-07T12:01:32;19.20;;;11.67;;
75191;SDS011;63771;52.580;9.734;2023-12-07T12:03:58;16.93;;;12.03;;
75191;SDS011;63771;52.580;9.734;2023-12-07T12:06:24;18.98;;;11.38;;
75191;SDS011;63771;52.580;9.734;2023-12-07T12:08:51;19.70;;;12.35;;
75191;SDS011;63771;52.580;9.734;2023-12-07T12:11:17;16.75;;;11.98;;
75191;SDS011;63771;52.580;9.734;2023-12-07T12:13:43;15.80;;;11.07;;
75191;SDS011;63771;52.580;9.734;2023-12-07T12:16:10;16.27;;;9.95;;
75191;SDS011;63771;52.580;9.734;2023-12-07T12:18:36;14.68;;;10.60;;
75191;SDS011;63771;52.580;9.734;2023-12-07T12:21:02;18.38;;;11.85;;
75191;SDS011;63771;52.580;9.734;2023-12-07T12:23:27;18.05;;;11.35;;
75191;SDS011;63771;52.580;9.734;2023-12-07T12:25:53;19.35;;;11.73;;
75191;SDS011;63771;52.580;9.734;2023-12-07T12:28:19;15.25;;;10.65;;
75191;SDS011;63771;52.580;9.734;2023-12-07T12:30:47;15.05;;;9.38;;
75191;SDS011;63771;52.580;9.734;2023-12-07T12:33:13;17.83;;;11.32;;
75191;SDS011;63771;52.580;9.734;2023-12-07T12:35:39;15.93;;;11.55;;
75191;SDS011;63771;52.580;9.734;2023-12-07T12:38:08;16.92;;;10.48;;
75191;SDS011;63771;52.580;9.734;2023-12-07T12:40:37;13.82;;;9.60;;
75191;SDS011;63771;52.580;9.734;2023-12-07T12:43:03;14.80;;;10.02;;
75191;SDS011;63771;52.580;9.734;2023-12-07T12:45:29;16.83;;;10.88;;
75191;SDS011;63771;52.580;9.734;2023-12-07T12:47:54;15.57;;;11.20;;
75191;SDS011;63771;52.580;9.734;2023-12-07T12:50:39;13.70;;;9.98;;
75191;SDS011;63771;52.580;9.734;2023-12-07T12:53:07;15.85;;;10.77;;
75191;SDS011;63771;52.580;9.734;2023-12-07T12:55:35;15.73;;;10.00;;
75191;SDS011;63771;52.580;9.734;2023-12-07T12:58:02;19.38;;;13.65;;
75191;SDS011;63771;52.580;9.734;2023-12-07T13:00:29;16.90;;;10.50;;
75191;SDS011;63771;52.580;9.734;2023-12-07T13:02:55;21.13;;;11.82;;
75191;SDS011;63771;52.580;9.734;2023-12-07T13:05:20;20.35;;;11.25;;
75191;SDS011;63771;52.580;9.734;2023-12-07T13:07:45;20.80;;;12.10;;
75191;SDS011;63771;52.580;9.734;2023-12-07T13:10:14;22.38;;;11.93;;
75191;SDS011;63771;52.580;9.734;2023-12-07T13:12:40;17.08;;;11.07;;
75191;SDS011;63771;52.580;9.734;2023-12-07T13:15:05;20.07;;;12.97;;
75191;SDS011;63771;52.580;9.734;2023-12-07T13:17:31;20.27;;;12.15;;
75191;SDS011;63771;52.580;9.734;2023-12-07T13:19:57;17.58;;;10.80;;
75191;SDS011;63771;52.580;9.734;2023-12-07T13:22:22;15.53;;;10.87;;
75191;SDS011;63771;52.580;9.734;2023-12-07T13:24:47;16.20;;;11.47;;
75191;SDS011;63771;52.580;9.734;2023-12-07T13:27:13;16.88;;;11.25;;
75191;SDS011;63771;52.580;9.734;2023-12-07T13:29:40;18.67;;;10.50;;
75191;SDS011;63771;52.580;9.734;2023-12-07T13:32:06;18.27;;;12.02;;
75191;SDS011;63771;52.580;9.734;2023-12-07T13:34:31;17.83;;;11.75;;
75191;SDS011;63771;52.580;9.734;2023-12-07T13:36:56;16.95;;;11.50;;
75191;SDS011;63771;52.580;9.734;2023-12-07T13:39:22;14.67;;;10.43;;
75191;SDS011;63771;52.580;9.734;2023-12-07T13:41:47;15.90;;;10.23;;
75191;SDS011;63771;52.580;9.734;2023-12-07T13:44:14;16.55;;;10.63;;
75191;SDS011;63771;52.580;9.734;2023-12-07T13:46:42;16.58;;;11.07;;
75191;SDS011;63771;52.580;9.734;2023-12-07T13:49:08;13.82;;;10.45;;
75191;SDS011;63771;52.580;9.734;2023-12-07T13:51:33;20.17;;;11.38;;
75191;SDS011;63771;52.580;9.734;2023-12-07T13:53:59;14.20;;;10.00;;
75191;SDS011;63771;52.580;9.734;2023-12-07T13:56:24;17.75;;;12.10;;
75191;SDS011;63771;52.580;9.734;2023-12-07T13:58:49;16.97;;;10.60;;
75191;SDS011;63771;52.580;9.734;2023-12-07T14:01:16;20.17;;;11.48;;
75191;SDS011;63771;52.580;9.734;2023-12-07T14:03:44;20.52;;;13.88;;
75191;SDS011;63771;52.580;9.734;2023-12-07T14:06:10;24.90;;;16.87;;
75191;SDS011;63771;52.580;9.734;2023-12-07T14:08:37;27.50;;;14.70;;
75191;SDS011;63771;52.580;9.734;2023-12-07T14:11:02;20.30;;;13.75;;
75191;SDS011;63771;52.580;9.734;2023-12-07T14:13:28;20.40;;;13.73;;
75191;SDS011;63771;52.580;9.734;2023-12-07T14:15:53;22.90;;;12.80;;
75191;SDS011;63771;52.580;9.734;2023-12-07T14:18:18;25.37;;;13.30;;
75191;SDS011;63771;52.580;9.734;2023-12-07T14:20:44;20.00;;;13.13;;
75191;SDS011;63771;52.580;9.734;2023-12-07T14:23:09;20.23;;;13.07;;
75191;SDS011;63771;52.580;9.734;2023-12-07T14:25:34;16.65;;;12.05;;